createdAt,value
2022-12-18T00:02:08.720Z,124.40
2022-12-18T00:04:46.750Z,129.65
2022-12-18T00:08:09.383Z,115.57
2022-12-18T00:11:07.084Z,130.30
2022-12-18T00:13:47.966Z,126.05
2022-12-18T00:20:05.425Z,130.90
2022-12-18T00:25:24.808Z,129.43
2022-12-18T00:31:22.660Z,131.80
2022-12-18T00:36:59.456Z,126.28
2022-12-18T00:42:56.015Z,126.30
2022-12-18T00:45:33.461Z,139.73
2022-12-18T00:48:17.433Z,125.35
2022-12-18T00:51:27.861Z,136.00
2022-12-18T00:53:58.696Z,142.95
2022-12-18T01:00:00.575Z,128.60
2022-12-18T01:02:37.062Z,129.13
2022-12-18T01:05:09.920Z,129.50
2022-12-18T01:07:41.379Z,130.07
2022-12-18T01:10:37.013Z,133.40
2022-12-18T01:13:26.772Z,127.53
2022-12-18T01:18:57.164Z,124.90
2022-12-18T01:21:29.133Z,117.43
2022-12-18T01:27:10.688Z,116.47
2022-12-18T01:29:55.780Z,122.68
2022-12-18T01:32:39.552Z,125.57
2022-12-18T01:35:09.782Z,119.22
2022-12-18T01:37:39.399Z,123.07
2022-12-18T01:40:20.106Z,120.05
2022-12-18T01:43:03.469Z,122.10
2022-12-18T01:45:32.287Z,120.57
2022-12-18T01:48:08.954Z,124.38
2022-12-18T01:50:41.132Z,115.53
2022-12-18T01:53:25.810Z,114.00
2022-12-18T01:58:48.458Z,125.68
2022-12-18T02:01:17.271Z,114.88
2022-12-18T02:03:47.384Z,117.10
2022-12-18T02:06:30.687Z,117.30
2022-12-18T02:09:39.826Z,117.40
2022-12-18T02:12:18.269Z,113.97
2022-12-18T02:15:00.037Z,90.83
2022-12-18T02:17:37.802Z,117.65
2022-12-18T02:20:22.720Z,111.28
2022-12-18T02:23:17.577Z,129.23
2022-12-18T02:26:22.407Z,119.32
2022-12-18T02:28:55.929Z,121.82
2022-12-18T02:31:28.290Z,118.53
2022-12-18T02:33:57.588Z,126.13
2022-12-18T02:36:40.488Z,120.65
2022-12-18T02:39:13.292Z,121.25
2022-12-18T02:41:53.937Z,122.82
2022-12-18T02:44:27.681Z,115.50
2022-12-18T02:50:00.445Z,116.97
2022-12-18T02:52:42.646Z,118.63
2022-12-18T02:55:28.587Z,116.88
2022-12-18T02:58:09.425Z,124.10
2022-12-18T03:00:42.635Z,123.70
2022-12-18T03:03:18.603Z,121.82
2022-12-18T03:06:01.558Z,125.57
2022-12-18T03:08:42.064Z,128.15
2022-12-18T03:11:17.194Z,120.55
2022-12-18T03:13:50.482Z,135.25
2022-12-18T03:16:24.753Z,130.82
2022-12-18T03:19:06.025Z,120.88
2022-12-18T03:21:41.286Z,133.63
2022-12-18T03:24:16.936Z,120.10
2022-12-18T03:26:51.657Z,140.98
2022-12-18T03:29:26.247Z,127.82
2022-12-18T03:32:06.599Z,132.30
2022-12-18T03:34:39.745Z,97.75
2022-12-18T03:37:08.030Z,128.80
2022-12-18T03:39:36.378Z,131.65
2022-12-18T03:42:11.566Z,129.45
2022-12-18T03:44:46.175Z,122.47
2022-12-18T03:47:20.995Z,136.88
2022-12-18T03:49:52.649Z,123.88
2022-12-18T03:52:25.275Z,124.18
2022-12-18T03:54:58.878Z,125.22
2022-12-18T03:57:32.013Z,127.97
2022-12-18T04:00:09.184Z,132.27
2022-12-18T04:02:42.192Z,139.68
2022-12-18T04:05:11.996Z,120.28
2022-12-18T04:07:40.321Z,134.30
2022-12-18T04:10:10.452Z,126.68
2022-12-18T04:12:38.674Z,128.17
2022-12-18T04:15:12.254Z,127.78
2022-12-18T04:17:39.857Z,130.38
2022-12-18T04:20:10.425Z,128.00
2022-12-18T04:22:37.738Z,128.02
2022-12-18T04:25:05.498Z,119.45
2022-12-18T04:27:35.512Z,118.47
2022-12-18T04:30:05.577Z,111.07
2022-12-18T04:32:37.118Z,112.83
2022-12-18T04:35:06.311Z,113.00
2022-12-18T04:37:37.549Z,108.30
2022-12-18T04:40:05.349Z,108.75
2022-12-18T04:42:35.328Z,99.35
2022-12-18T04:45:02.397Z,100.15
2022-12-18T04:47:42.067Z,97.60
2022-12-18T04:50:09.702Z,101.97
2022-12-18T04:52:42.889Z,95.63
2022-12-18T04:55:10.038Z,103.50
2022-12-18T04:57:38.507Z,100.75
2022-12-18T05:00:06.660Z,93.72
2022-12-18T05:02:38.390Z,106.85
2022-12-18T05:05:06.802Z,97.38
2022-12-18T05:07:35.221Z,94.95
2022-12-18T05:10:04.465Z,96.80
2022-12-18T05:12:33.267Z,96.60
2022-12-18T05:15:00.245Z,103.68
2022-12-18T05:17:27.082Z,105.88
2022-12-18T05:19:55.592Z,92.55
2022-12-18T05:22:22.892Z,90.18
2022-12-18T05:24:50.247Z,92.68
2022-12-18T05:27:17.293Z,90.78
2022-12-18T05:29:44.415Z,83.53
2022-12-18T05:32:13.476Z,93.35
2022-12-18T05:34:40.355Z,86.95
2022-12-18T05:37:10.666Z,84.63
2022-12-18T05:39:39.296Z,83.75
2022-12-18T05:42:09.736Z,81.43
2022-12-18T05:44:36.743Z,84.38
2022-12-18T05:47:03.947Z,84.72
2022-12-18T05:49:31.292Z,84.22
2022-12-18T05:51:58.069Z,77.13
2022-12-18T05:54:28.108Z,79.18
2022-12-18T05:56:55.233Z,75.20
2022-12-18T05:59:22.020Z,72.35
2022-12-18T06:01:49.425Z,78.97
2022-12-18T06:04:16.377Z,80.65
2022-12-18T06:06:43.765Z,74.30
2022-12-18T06:09:17.389Z,73.35
2022-12-18T06:11:45.694Z,73.15
2022-12-18T06:14:12.677Z,73.25
2022-12-18T06:16:39.641Z,76.18
2022-12-18T06:19:14.800Z,70.60
2022-12-18T06:21:41.594Z,72.93
2022-12-18T06:24:08.725Z,68.30
2022-12-18T06:26:38.453Z,74.40
2022-12-18T06:29:07.032Z,71.97
2022-12-18T06:31:43.592Z,76.30
2022-12-18T06:34:11.734Z,66.15
2022-12-18T06:36:38.508Z,63.33
2022-12-18T06:39:08.200Z,58.90
2022-12-18T06:41:36.231Z,68.22
2022-12-18T06:44:09.847Z,60.63
2022-12-18T06:46:37.994Z,65.13
2022-12-18T06:49:06.663Z,57.35
2022-12-18T06:51:33.515Z,66.57
2022-12-18T06:54:03.533Z,64.72
2022-12-18T06:56:30.703Z,43.33
2022-12-18T06:58:57.895Z,71.20
2022-12-18T07:01:26.380Z,62.10
2022-12-18T07:03:54.352Z,58.90
2022-12-18T07:06:26.168Z,62.25
2022-12-18T07:08:54.443Z,62.47
2022-12-18T07:11:22.898Z,64.05
2022-12-18T07:13:54.570Z,61.05
2022-12-18T07:16:25.734Z,58.97
2022-12-18T07:18:57.484Z,60.92
2022-12-18T07:21:25.679Z,60.30
2022-12-18T07:23:52.994Z,57.17
2022-12-18T07:26:24.747Z,54.72
2022-12-18T07:28:55.858Z,55.20
2022-12-18T07:31:23.047Z,61.97
2022-12-18T07:33:51.269Z,56.03
2022-12-18T07:36:20.622Z,52.72
2022-12-18T07:38:51.154Z,59.97
2022-12-18T07:41:18.508Z,58.40
2022-12-18T07:43:46.008Z,54.30
2022-12-18T07:46:16.347Z,58.85
2022-12-18T07:48:43.672Z,37.70
2022-12-18T07:51:16.675Z,55.92
2022-12-18T07:53:45.266Z,50.95
2022-12-18T07:56:31.452Z,49.42
2022-12-18T07:58:59.074Z,56.28
2022-12-18T08:01:35.078Z,49.13
2022-12-18T08:04:02.421Z,50.30
2022-12-18T08:06:36.779Z,51.70
2022-12-18T08:09:05.973Z,56.10
2022-12-18T08:11:36.857Z,50.25
2022-12-18T08:14:06.402Z,49.53
2022-12-18T08:16:41.883Z,46.03
2022-12-18T08:22:29.804Z,43.00
2022-12-18T08:25:35.183Z,49.28
2022-12-18T08:28:14.401Z,44.55
2022-12-18T08:30:48.362Z,48.83
2022-12-18T08:36:33.428Z,44.72
2022-12-18T08:39:00.511Z,47.45
2022-12-18T08:41:31.386Z,46.47
2022-12-18T08:44:01.329Z,47.53
2022-12-18T08:46:38.736Z,51.90
2022-12-18T08:49:07.526Z,42.53
2022-12-18T08:51:36.704Z,37.50
2022-12-18T08:54:04.232Z,43.72
2022-12-18T08:56:35.235Z,39.58
2022-12-18T08:59:03.344Z,34.97
2022-12-18T09:01:31.037Z,39.60
2022-12-18T09:03:58.788Z,35.38
2022-12-18T09:06:26.734Z,33.20
2022-12-18T09:08:53.894Z,32.33
2022-12-18T09:11:23.857Z,32.78
2022-12-18T09:13:53.198Z,29.02
2022-12-18T09:16:22.524Z,27.58
2022-12-18T09:18:51.805Z,32.53
2022-12-18T09:21:20.925Z,30.52
2022-12-18T09:23:50.826Z,29.20
2022-12-18T09:26:17.890Z,27.50
2022-12-18T09:28:46.890Z,31.08
2022-12-18T09:31:15.298Z,30.75
2022-12-18T09:33:42.464Z,29.98
2022-12-18T09:36:12.426Z,33.13
2022-12-18T09:38:39.898Z,28.77
2022-12-18T09:41:27.112Z,26.45
2022-12-18T09:43:58.498Z,27.88
2022-12-18T09:46:31.569Z,27.95
2022-12-18T09:49:03.479Z,26.25
2022-12-18T09:51:36.506Z,27.70
2022-12-18T09:54:08.540Z,23.52
2022-12-18T09:56:38.580Z,25.58
2022-12-18T09:59:06.095Z,24.92
2022-12-18T10:01:41.740Z,25.83
2022-12-18T10:04:11.325Z,24.52
2022-12-18T10:06:43.991Z,23.88
2022-12-18T10:09:21.757Z,24.63
2022-12-18T10:11:55.883Z,28.65
2022-12-18T10:14:30.524Z,30.48
2022-12-18T10:17:03.774Z,20.33
2022-12-18T10:19:40.657Z,21.30
2022-12-18T10:22:16.892Z,17.13
2022-12-18T10:24:51.503Z,19.52
2022-12-18T10:27:22.895Z,24.92
2022-12-18T10:29:49.919Z,19.92
2022-12-18T10:32:20.845Z,22.58
2022-12-18T10:37:18.488Z,20.35
2022-12-18T10:39:45.872Z,24.90
2022-12-18T10:42:17.927Z,24.50
2022-12-18T10:44:45.004Z,24.88
2022-12-18T10:47:17.337Z,23.65
2022-12-18T10:49:50.564Z,23.88
2022-12-18T10:52:20.583Z,26.70
2022-12-18T10:54:50.882Z,18.55
2022-12-18T10:57:36.233Z,26.23
2022-12-18T11:00:22.901Z,27.20
2022-12-18T11:02:50.312Z,26.10
2022-12-18T11:05:30.390Z,22.63
2022-12-18T11:07:59.044Z,18.45
2022-12-18T11:10:30.510Z,20.23
2022-12-18T11:13:09.466Z,18.92
2022-12-18T11:15:36.218Z,20.38
2022-12-18T11:18:03.295Z,19.90
2022-12-18T11:20:36.288Z,19.55
2022-12-18T11:23:05.975Z,20.30
2022-12-18T11:25:35.691Z,21.50
2022-12-18T11:28:06.823Z,25.50
2022-12-18T11:30:35.625Z,17.88
2022-12-18T11:33:08.453Z,19.33
2022-12-18T11:35:51.236Z,18.65
2022-12-18T11:38:23.423Z,17.35
2022-12-18T11:40:56.112Z,16.88
2022-12-18T11:43:29.817Z,21.92
2022-12-18T11:46:03.611Z,16.45
2022-12-18T11:48:34.987Z,17.60
2022-12-18T11:51:09.486Z,17.65
2022-12-18T11:53:36.232Z,14.57
2022-12-18T11:56:14.111Z,17.52
2022-12-18T11:58:48.471Z,14.40
2022-12-18T12:01:41.979Z,17.08
2022-12-18T12:04:29.720Z,15.38
2022-12-18T12:07:07.981Z,17.80
2022-12-18T12:09:40.506Z,12.98
2022-12-18T12:15:35.266Z,13.27
2022-12-18T12:18:11.577Z,15.27
2022-12-18T12:20:50.726Z,13.15
2022-12-18T12:23:30.013Z,12.50
2022-12-18T12:26:04.218Z,12.20
2022-12-18T12:28:50.329Z,11.45
2022-12-18T12:31:33.155Z,10.93
2022-12-18T12:34:09.094Z,9.00
2022-12-18T12:36:42.392Z,8.98
2022-12-18T12:39:16.888Z,9.88
2022-12-18T12:41:49.800Z,9.57
2022-12-18T12:44:21.398Z,11.90
2022-12-18T12:46:51.237Z,11.18
2022-12-18T12:49:22.191Z,9.82
2022-12-18T12:51:58.100Z,8.50
2022-12-18T12:54:38.885Z,8.68
2022-12-18T12:57:28.831Z,8.00
2022-12-18T13:00:44.704Z,7.07
2022-12-18T13:03:29.260Z,8.50
2022-12-18T13:06:10.388Z,9.48
2022-12-18T13:09:00.260Z,6.47
2022-12-18T13:11:43.053Z,9.00
2022-12-18T13:14:30.400Z,6.68
2022-12-18T13:17:44.738Z,6.95
2022-12-18T13:20:19.954Z,8.48
2022-12-18T13:23:41.826Z,5.93
2022-12-18T13:26:41.391Z,6.50
2022-12-18T13:29:49.975Z,7.28
2022-12-18T13:35:40.312Z,7.22
2022-12-18T13:38:22.111Z,5.10
2022-12-18T13:41:23.014Z,6.35
2022-12-18T13:43:55.352Z,6.22
2022-12-18T13:46:29.302Z,6.03
2022-12-18T13:52:44.626Z,7.13
2022-12-18T13:55:25.153Z,5.57
2022-12-18T14:01:33.861Z,5.45
2022-12-18T14:04:38.149Z,7.35
2022-12-18T14:07:49.222Z,6.32
2022-12-18T14:11:06.419Z,5.70
2022-12-18T14:35:09.816Z,11.00
2022-12-18T14:41:22.872Z,8.13
2022-12-18T14:47:39.083Z,7.85
2022-12-18T14:50:17.581Z,7.13
2022-12-18T14:52:47.505Z,6.75
2022-12-18T14:55:17.118Z,6.63
2022-12-18T14:57:51.186Z,9.70
2022-12-18T15:00:22.276Z,6.90
2022-12-18T15:02:53.920Z,7.50
2022-12-18T15:05:25.813Z,6.50
2022-12-18T15:07:54.160Z,8.35
2022-12-18T15:10:22.482Z,6.90
2022-12-18T15:12:51.004Z,7.30
2022-12-18T15:15:47.566Z,6.82
2022-12-18T15:18:16.688Z,9.40
2022-12-18T15:20:45.752Z,6.82
2022-12-18T15:23:19.652Z,8.25
2022-12-18T15:25:47.458Z,8.15
2022-12-18T15:28:22.888Z,6.78
2022-12-18T15:31:02.813Z,6.38
2022-12-18T15:33:33.044Z,7.15
2022-12-18T15:36:00.508Z,6.32
2022-12-18T15:38:28.120Z,6.78
2022-12-18T15:40:55.189Z,9.27
2022-12-18T15:43:23.658Z,7.30
2022-12-18T15:45:51.012Z,5.88
2022-12-18T15:48:22.765Z,7.20
2022-12-18T15:50:50.919Z,6.97
2022-12-18T15:53:18.443Z,7.13
2022-12-18T15:55:46.635Z,7.72
2022-12-18T16:01:24.106Z,6.95
2022-12-18T16:08:01.021Z,9.02
2022-12-18T16:11:23.006Z,11.23
2022-12-18T16:14:18.369Z,9.25
2022-12-18T16:16:47.384Z,12.50
2022-12-18T16:19:14.119Z,8.75
2022-12-18T16:21:42.771Z,8.48
2022-12-18T16:24:15.784Z,11.27
2022-12-18T16:26:42.930Z,10.68
2022-12-18T16:29:10.034Z,8.20
2022-12-18T16:31:37.694Z,8.07
2022-12-18T16:34:22.834Z,9.57
2022-12-18T16:36:54.040Z,7.85
2022-12-18T16:39:22.998Z,7.40
2022-12-18T16:41:54.100Z,9.90
2022-12-18T16:44:25.740Z,8.35
2022-12-18T16:46:54.137Z,9.95
2022-12-18T16:49:21.126Z,8.50
2022-12-18T16:51:48.117Z,7.90
2022-12-18T16:54:19.936Z,8.15
2022-12-18T16:56:48.766Z,8.85
2022-12-18T16:59:19.308Z,8.40
2022-12-18T17:04:14.454Z,9.88
2022-12-18T17:06:49.853Z,8.77
2022-12-18T17:09:16.891Z,8.75
2022-12-18T17:11:44.060Z,10.82
2022-12-18T17:14:22.150Z,10.52
2022-12-18T17:19:33.491Z,9.55
2022-12-18T17:22:02.304Z,8.55
2022-12-18T17:24:34.828Z,8.52
2022-12-18T17:27:06.022Z,8.38
2022-12-18T17:29:37.642Z,11.70
2022-12-18T17:32:08.802Z,11.63
2022-12-18T17:34:40.888Z,11.93
2022-12-18T17:37:08.022Z,10.35
2022-12-18T17:39:43.451Z,8.55
2022-12-18T17:42:10.907Z,8.77
2022-12-18T17:44:52.563Z,13.15
2022-12-18T17:47:19.640Z,13.07
2022-12-18T17:49:46.537Z,8.43
2022-12-18T17:52:16.290Z,9.07
2022-12-18T17:54:55.234Z,8.15
2022-12-18T17:57:36.966Z,9.85
2022-12-18T18:00:08.174Z,9.75
2022-12-18T18:05:06.061Z,9.10
2022-12-18T18:07:50.559Z,10.33
2022-12-18T18:10:22.222Z,10.40
2022-12-18T18:12:50.700Z,8.90
2022-12-18T18:15:28.197Z,9.82
2022-12-18T18:18:03.537Z,10.93
2022-12-18T18:20:42.775Z,11.32
2022-12-18T18:23:10.044Z,9.95
2022-12-18T18:25:37.199Z,11.18
2022-12-18T18:28:08.609Z,10.27
2022-12-18T18:30:38.459Z,9.63
2022-12-18T18:33:13.724Z,12.38
2022-12-18T18:35:54.413Z,9.80
2022-12-18T18:38:24.313Z,10.27
2022-12-18T18:41:10.603Z,14.77
2022-12-18T18:49:37.921Z,15.00
2022-12-18T18:52:09.525Z,11.52
2022-12-18T18:54:51.927Z,14.30
2022-12-18T18:57:30.114Z,11.80
2022-12-18T19:00:01.434Z,11.00
2022-12-18T19:05:52.567Z,16.60
2022-12-18T19:08:51.450Z,10.65
2022-12-18T19:15:33.643Z,12.15
2022-12-18T19:18:33.575Z,12.48
2022-12-18T19:21:17.598Z,12.10
2022-12-18T19:23:55.991Z,17.95
2022-12-18T19:26:41.378Z,22.00
2022-12-18T19:29:24.238Z,16.83
2022-12-18T19:31:58.811Z,17.00
2022-12-18T19:34:34.688Z,15.15
2022-12-18T19:37:14.200Z,16.23
2022-12-18T19:39:47.315Z,15.00
2022-12-18T19:42:14.488Z,16.27
2022-12-18T19:44:45.803Z,16.08
2022-12-18T19:47:12.777Z,15.85
2022-12-18T19:49:45.952Z,19.08
2022-12-18T19:52:21.651Z,16.35
2022-12-18T19:55:14.578Z,17.67
2022-12-18T19:57:43.124Z,19.02
2022-12-18T20:00:16.914Z,24.58
2022-12-18T20:02:48.758Z,23.38
2022-12-18T20:05:33.354Z,21.07
2022-12-18T20:08:16.162Z,28.33
2022-12-18T20:10:49.462Z,21.35
2022-12-18T20:13:36.793Z,19.10
2022-12-18T20:18:50.566Z,23.52
2022-12-18T20:21:28.179Z,23.10
2022-12-18T20:23:55.181Z,20.70
2022-12-18T20:26:30.035Z,24.77
2022-12-18T20:29:05.099Z,25.17
2022-12-18T20:31:32.221Z,22.27
2022-12-18T20:34:06.045Z,23.88
2022-12-18T20:36:39.803Z,22.95
2022-12-18T20:39:17.791Z,24.20
2022-12-18T20:41:48.863Z,22.90
2022-12-18T20:44:22.699Z,20.33
2022-12-18T20:47:07.446Z,21.48
2022-12-18T20:49:39.548Z,23.15
2022-12-18T20:52:29.435Z,24.67
2022-12-18T20:55:00.345Z,22.45
2022-12-18T20:57:30.687Z,24.30
2022-12-18T21:00:04.797Z,26.27
2022-12-18T21:02:32.116Z,26.35
2022-12-18T21:04:59.145Z,26.33
2022-12-18T21:07:27.807Z,27.60
2022-12-18T21:09:56.519Z,24.92
2022-12-18T21:12:26.152Z,29.55
2022-12-18T21:15:01.466Z,26.55
2022-12-18T21:17:41.118Z,25.48
2022-12-18T21:20:18.549Z,26.77
2022-12-18T21:22:54.074Z,24.00
2022-12-18T21:25:24.268Z,27.50
2022-12-18T21:27:51.044Z,26.35
2022-12-18T21:30:17.838Z,28.42
2022-12-18T21:32:45.819Z,27.77
2022-12-18T21:35:14.419Z,30.02
2022-12-18T21:37:47.467Z,29.20
2022-12-18T21:40:15.783Z,28.80
2022-12-18T21:42:45.576Z,29.30
2022-12-18T21:45:12.679Z,34.42
2022-12-18T21:47:48.052Z,30.90
2022-12-18T21:50:17.570Z,30.52
2022-12-18T21:52:50.279Z,33.30
2022-12-18T21:55:23.264Z,35.60
2022-12-18T21:58:11.091Z,31.60
2022-12-18T22:00:48.564Z,31.38
2022-12-18T22:03:18.646Z,33.35
2022-12-18T22:06:00.648Z,32.60
2022-12-18T22:08:43.582Z,32.42
2022-12-18T22:11:17.027Z,35.65
2022-12-18T22:13:47.518Z,40.47
2022-12-18T22:16:18.076Z,33.72
2022-12-18T22:18:45.119Z,28.30
2022-12-18T22:21:29.624Z,36.30
2022-12-18T22:24:00.917Z,34.15
2022-12-18T22:26:36.504Z,34.25
2022-12-18T22:29:16.172Z,34.97
2022-12-18T22:31:50.772Z,35.45
2022-12-18T22:34:26.168Z,33.47
2022-12-18T22:36:55.382Z,38.03
2022-12-18T22:39:27.000Z,37.38
2022-12-18T22:42:02.990Z,35.97
2022-12-18T22:44:47.633Z,37.78
2022-12-18T22:47:27.995Z,37.75
2022-12-18T22:49:57.102Z,37.33
2022-12-18T22:52:25.897Z,37.13
2022-12-18T22:55:00.429Z,38.38
2022-12-18T22:57:38.175Z,40.78
2022-12-18T23:00:15.743Z,43.65
2022-12-18T23:03:00.737Z,38.30
2022-12-18T23:05:35.386Z,38.60
2022-12-18T23:08:03.077Z,41.42
2022-12-18T23:10:36.933Z,39.53
2022-12-18T23:13:10.916Z,44.05
2022-12-18T23:15:47.936Z,43.28
2022-12-18T23:18:26.772Z,40.42
2022-12-18T23:20:57.964Z,34.92
2022-12-18T23:23:30.727Z,40.67
2022-12-18T23:26:08.164Z,43.53
2022-12-18T23:32:02.583Z,43.30
2022-12-18T23:34:45.948Z,45.78
2022-12-18T23:37:49.982Z,42.28
2022-12-18T23:40:10.149Z,45.53
2022-12-18T23:42:47.855Z,47.15
2022-12-18T23:45:28.148Z,43.08
2022-12-18T23:48:01.389Z,50.85
2022-12-18T23:50:44.194Z,45.78
2022-12-18T23:53:14.698Z,48.42
2022-12-18T23:55:45.997Z,47.22
2022-12-18T23:58:21.859Z,47.50
